sensor_id;sensor_type;location;lat;lon;timestamp;P1;durP1;ratioP1;P2;durP2;ratioP2
28003;SDS011;15330;51.234;6.754;2022-09-13T00:00:10;5.47;;;4.30;;
28003;SDS011;15330;51.234;6.754;2022-09-13T00:02:35;7.10;;;4.25;;
28003;SDS011;15330;51.234;6.754;2022-09-13T00:05:01;4.90;;;4.40;;
28003;SDS011;15330;51.234;6.754;2022-09-13T00:07:26;6.35;;;4.72;;
28003;SDS011;15330;51.234;6.754;2022-09-13T00:09:51;6.28;;;4.60;;
28003;SDS011;15330;51.234;6.754;2022-09-13T00:12:16;6.90;;;4.47;;
28003;SDS011;15330;51.234;6.754;2022-09-13T00:14:42;9.63;;;5.22;;
28003;SDS011;15330;51.234;6.754;2022-09-13T00:17:07;9.10;;;5.03;;
28003;SDS011;15330;51.234;6.754;2022-09-13T00:19:32;6.43;;;4.97;;
28003;SDS011;15330;51.234;6.754;2022-09-13T00:21:58;7.72;;;4.72;;
28003;SDS011;15330;51.234;6.754;2022-09-13T00:24:23;7.28;;;4.78;;
28003;SDS011;15330;51.234;6.754;2022-09-13T00:26:49;7.28;;;4.60;;
28003;SDS011;15330;51.234;6.754;2022-09-13T00:29:14;6.10;;;4.72;;
28003;SDS011;15330;51.234;6.754;2022-09-13T00:31:40;7.35;;;4.57;;
28003;SDS011;15330;51.234;6.754;2022-09-13T00:34:05;7.78;;;4.72;;
28003;SDS011;15330;51.234;6.754;2022-09-13T00:36:31;6.45;;;4.65;;
28003;SDS011;15330;51.234;6.754;2022-09-13T00:38:56;7.63;;;5.13;;
28003;SDS011;15330;51.234;6.754;2022-09-13T00:41:24;6.22;;;4.57;;
28003;SDS011;15330;51.234;6.754;2022-09-13T00:43:50;7.45;;;4.97;;
28003;SDS011;15330;51.234;6.754;2022-09-13T00:46:26;6.32;;;4.90;;
28003;SDS011;15330;51.234;6.754;2022-09-13T00:49:02;6.57;;;4.70;;
28003;SDS011;15330;51.234;6.754;2022-09-13T00:51:36;9.82;;;4.72;;
28003;SDS011;15330;51.234;6.754;2022-09-13T00:54:02;7.35;;;4.88;;
28003;SDS011;15330;51.234;6.754;2022-09-13T00:56:33;7.10;;;5.13;;
28003;SDS011;15330;51.234;6.754;2022-09-13T00:59:06;7.43;;;4.93;;
28003;SDS011;15330;51.234;6.754;2022-09-13T01:01:41;6.00;;;4.85;;
28003;SDS011;15330;51.234;6.754;2022-09-13T01:04:11;6.03;;;4.55;;
28003;SDS011;15330;51.234;6.754;2022-09-13T01:06:37;5.68;;;5.00;;
28003;SDS011;15330;51.234;6.754;2022-09-13T01:09:04;7.18;;;5.30;;
28003;SDS011;15330;51.234;6.754;2022-09-13T01:11:39;7.47;;;4.95;;
28003;SDS011;15330;51.234;6.754;2022-09-13T01:14:11;8.18;;;5.05;;
28003;SDS011;15330;51.234;6.754;2022-09-13T01:16:37;7.38;;;5.30;;
28003;SDS011;15330;51.234;6.754;2022-09-13T01:19:02;7.47;;;5.28;;
28003;SDS011;15330;51.234;6.754;2022-09-13T01:30:13;7.20;;;5.32;;
28003;SDS011;15330;51.234;6.754;2022-09-13T01:32:53;10.00;;;5.63;;
28003;SDS011;15330;51.234;6.754;2022-09-13T01:41:46;7.53;;;6.00;;
28003;SDS011;15330;51.234;6.754;2022-09-13T01:44:26;11.57;;;5.45;;
28003;SDS011;15330;51.234;6.754;2022-09-13T01:53:00;8.65;;;5.35;;
28003;SDS011;15330;51.234;6.754;2022-09-13T01:55:38;8.32;;;5.68;;
28003;SDS011;15330;51.234;6.754;2022-09-13T02:01:06;6.53;;;5.07;;
28003;SDS011;15330;51.234;6.754;2022-09-13T02:03:34;7.57;;;5.32;;
28003;SDS011;15330;51.234;6.754;2022-09-13T02:06:07;9.05;;;6.15;;
28003;SDS011;15330;51.234;6.754;2022-09-13T02:08:41;7.03;;;5.13;;
28003;SDS011;15330;51.234;6.754;2022-09-13T02:11:11;6.07;;;5.45;;
28003;SDS011;15330;51.234;6.754;2022-09-13T02:13:40;6.20;;;5.28;;
28003;SDS011;15330;51.234;6.754;2022-09-13T02:16:12;13.02;;;5.97;;
28003;SDS011;15330;51.234;6.754;2022-09-13T02:18:45;7.05;;;5.50;;
28003;SDS011;15330;51.234;6.754;2022-09-13T02:21:36;10.68;;;5.88;;
28003;SDS011;15330;51.234;6.754;2022-09-13T02:24:08;7.25;;;5.50;;
28003;SDS011;15330;51.234;6.754;2022-09-13T02:26:37;8.77;;;5.57;;
28003;SDS011;15330;51.234;6.754;2022-09-13T02:29:08;9.50;;;5.78;;
28003;SDS011;15330;51.234;6.754;2022-09-13T02:31:40;7.93;;;5.88;;
28003;SDS011;15330;51.234;6.754;2022-09-13T02:34:11;7.18;;;5.57;;
28003;SDS011;15330;51.234;6.754;2022-09-13T02:36:44;11.25;;;6.25;;
28003;SDS011;15330;51.234;6.754;2022-09-13T02:39:13;8.07;;;5.18;;
28003;SDS011;15330;51.234;6.754;2022-09-13T03:00:42;8.15;;;5.78;;
28003;SDS011;15330;51.234;6.754;2022-09-13T03:03:10;11.23;;;6.18;;
28003;SDS011;15330;51.234;6.754;2022-09-13T03:05:38;8.20;;;6.18;;
28003;SDS011;15330;51.234;6.754;2022-09-13T03:08:04;6.88;;;5.55;;
28003;SDS011;15330;51.234;6.754;2022-09-13T03:10:39;10.73;;;5.57;;
28003;SDS011;15330;51.234;6.754;2022-09-13T03:13:26;6.65;;;5.43;;
28003;SDS011;15330;51.234;6.754;2022-09-13T03:27:46;10.43;;;6.68;;
28003;SDS011;15330;51.234;6.754;2022-09-13T03:30:14;12.20;;;6.20;;
28003;SDS011;15330;51.234;6.754;2022-09-13T03:38:09;7.65;;;6.45;;
28003;SDS011;15330;51.234;6.754;2022-09-13T03:40:49;10.75;;;6.30;;
28003;SDS011;15330;51.234;6.754;2022-09-13T03:45:53;10.25;;;7.10;;
28003;SDS011;15330;51.234;6.754;2022-09-13T03:48:23;9.32;;;7.03;;
28003;SDS011;15330;51.234;6.754;2022-09-13T03:50:49;7.28;;;6.13;;
28003;SDS011;15330;51.234;6.754;2022-09-13T03:53:17;10.57;;;6.75;;
28003;SDS011;15330;51.234;6.754;2022-09-13T03:55:46;10.07;;;6.45;;
28003;SDS011;15330;51.234;6.754;2022-09-13T03:58:13;9.55;;;6.40;;
28003;SDS011;15330;51.234;6.754;2022-09-13T04:00:41;8.23;;;6.47;;
28003;SDS011;15330;51.234;6.754;2022-09-13T04:03:07;10.55;;;6.95;;
28003;SDS011;15330;51.234;6.754;2022-09-13T04:05:33;7.80;;;6.47;;
28003;SDS011;15330;51.234;6.754;2022-09-13T04:07:59;8.10;;;6.45;;
28003;SDS011;15330;51.234;6.754;2022-09-13T04:10:26;10.07;;;6.63;;
28003;SDS011;15330;51.234;6.754;2022-09-13T04:12:52;9.95;;;7.18;;
28003;SDS011;15330;51.234;6.754;2022-09-13T04:15:18;9.00;;;6.38;;
28003;SDS011;15330;51.234;6.754;2022-09-13T04:17:44;12.80;;;7.28;;
28003;SDS011;15330;51.234;6.754;2022-09-13T04:20:09;10.73;;;6.95;;
28003;SDS011;15330;51.234;6.754;2022-09-13T04:22:35;10.35;;;6.82;;
28003;SDS011;15330;51.234;6.754;2022-09-13T04:25:00;8.02;;;6.65;;
28003;SDS011;15330;51.234;6.754;2022-09-13T04:27:26;11.02;;;6.95;;
28003;SDS011;15330;51.234;6.754;2022-09-13T04:29:51;10.52;;;6.97;;
28003;SDS011;15330;51.234;6.754;2022-09-13T04:32:17;9.82;;;7.47;;
28003;SDS011;15330;51.234;6.754;2022-09-13T04:34:42;9.23;;;7.35;;
28003;SDS011;15330;51.234;6.754;2022-09-13T04:37:08;9.70;;;7.65;;
28003;SDS011;15330;51.234;6.754;2022-09-13T04:39:33;12.43;;;7.30;;
28003;SDS011;15330;51.234;6.754;2022-09-13T04:41:58;10.15;;;7.75;;
28003;SDS011;15330;51.234;6.754;2022-09-13T04:44:24;9.95;;;7.22;;
28003;SDS011;15330;51.234;6.754;2022-09-13T04:46:49;12.63;;;7.55;;
28003;SDS011;15330;51.234;6.754;2022-09-13T04:49:15;10.38;;;8.05;;
28003;SDS011;15330;51.234;6.754;2022-09-13T04:51:42;9.52;;;7.32;;
28003;SDS011;15330;51.234;6.754;2022-09-13T04:54:08;13.88;;;8.57;;
28003;SDS011;15330;51.234;6.754;2022-09-13T04:56:34;11.95;;;8.05;;
28003;SDS011;15330;51.234;6.754;2022-09-13T04:59:00;12.85;;;8.13;;
28003;SDS011;15330;51.234;6.754;2022-09-13T05:01:25;11.40;;;7.80;;
28003;SDS011;15330;51.234;6.754;2022-09-13T05:03:51;14.55;;;8.20;;
28003;SDS011;15330;51.234;6.754;2022-09-13T05:06:17;13.38;;;8.35;;
28003;SDS011;15330;51.234;6.754;2022-09-13T05:08:43;16.58;;;8.70;;
28003;SDS011;15330;51.234;6.754;2022-09-13T05:11:13;10.73;;;8.63;;
28003;SDS011;15330;51.234;6.754;2022-09-13T05:13:38;14.38;;;8.02;;
28003;SDS011;15330;51.234;6.754;2022-09-13T05:16:04;12.75;;;7.88;;
28003;SDS011;15330;51.234;6.754;2022-09-13T05:18:32;16.20;;;8.43;;
28003;SDS011;15330;51.234;6.754;2022-09-13T05:20:59;15.13;;;8.52;;
28003;SDS011;15330;51.234;6.754;2022-09-13T05:23:26;12.82;;;7.95;;
28003;SDS011;15330;51.234;6.754;2022-09-13T05:25:57;16.83;;;8.85;;
28003;SDS011;15330;51.234;6.754;2022-09-13T05:28:25;12.50;;;8.20;;
28003;SDS011;15330;51.234;6.754;2022-09-13T05:33:20;18.02;;;9.93;;
28003;SDS011;15330;51.234;6.754;2022-09-13T05:35:45;13.80;;;9.27;;
28003;SDS011;15330;51.234;6.754;2022-09-13T05:38:11;14.20;;;9.90;;
28003;SDS011;15330;51.234;6.754;2022-09-13T05:40:36;13.35;;;9.55;;
28003;SDS011;15330;51.234;6.754;2022-09-13T05:43:01;17.40;;;10.20;;
28003;SDS011;15330;51.234;6.754;2022-09-13T05:45:27;11.88;;;9.95;;
28003;SDS011;15330;51.234;6.754;2022-09-13T05:47:53;15.40;;;9.80;;
28003;SDS011;15330;51.234;6.754;2022-09-13T05:50:18;13.10;;;9.32;;
28003;SDS011;15330;51.234;6.754;2022-09-13T05:52:49;19.35;;;11.45;;
28003;SDS011;15330;51.234;6.754;2022-09-13T05:55:18;17.17;;;12.15;;
28003;SDS011;15330;51.234;6.754;2022-09-13T05:57:44;17.35;;;11.70;;
28003;SDS011;15330;51.234;6.754;2022-09-13T06:00:09;14.05;;;9.57;;
28003;SDS011;15330;51.234;6.754;2022-09-13T06:02:35;14.13;;;9.57;;
28003;SDS011;15330;51.234;6.754;2022-09-13T06:05:00;15.63;;;11.13;;
28003;SDS011;15330;51.234;6.754;2022-09-13T06:07:25;13.85;;;9.18;;
28003;SDS011;15330;51.234;6.754;2022-09-13T06:09:52;14.43;;;9.60;;
28003;SDS011;15330;51.234;6.754;2022-09-13T06:12:18;15.98;;;12.32;;
28003;SDS011;15330;51.234;6.754;2022-09-13T06:14:43;13.82;;;9.07;;
28003;SDS011;15330;51.234;6.754;2022-09-13T06:17:08;26.95;;;19.38;;
28003;SDS011;15330;51.234;6.754;2022-09-13T06:19:34;10.50;;;8.40;;
28003;SDS011;15330;51.234;6.754;2022-09-13T06:21:59;17.95;;;8.35;;
28003;SDS011;15330;51.234;6.754;2022-09-13T06:24:24;13.07;;;8.32;;
28003;SDS011;15330;51.234;6.754;2022-09-13T06:26:50;12.93;;;8.48;;
28003;SDS011;15330;51.234;6.754;2022-09-13T06:29:15;35.33;;;25.35;;
28003;SDS011;15330;51.234;6.754;2022-09-13T06:31:41;18.00;;;9.48;;
28003;SDS011;15330;51.234;6.754;2022-09-13T06:34:09;15.30;;;11.18;;
28003;SDS011;15330;51.234;6.754;2022-09-13T06:36:37;17.83;;;9.05;;
28003;SDS011;15330;51.234;6.754;2022-09-13T06:39:03;16.80;;;9.15;;
28003;SDS011;15330;51.234;6.754;2022-09-13T06:41:30;16.67;;;9.80;;
28003;SDS011;15330;51.234;6.754;2022-09-13T06:43:57;11.23;;;8.65;;
28003;SDS011;15330;51.234;6.754;2022-09-13T06:46:24;14.18;;;9.15;;
28003;SDS011;15330;51.234;6.754;2022-09-13T06:48:54;13.38;;;9.32;;
28003;SDS011;15330;51.234;6.754;2022-09-13T06:51:21;12.32;;;9.13;;
28003;SDS011;15330;51.234;6.754;2022-09-13T06:53:47;17.00;;;9.18;;
28003;SDS011;15330;51.234;6.754;2022-09-13T06:56:20;16.25;;;9.05;;
28003;SDS011;15330;51.234;6.754;2022-09-13T06:58:48;12.60;;;9.05;;
28003;SDS011;15330;51.234;6.754;2022-09-13T07:01:16;11.32;;;8.32;;
28003;SDS011;15330;51.234;6.754;2022-09-13T07:03:48;12.43;;;8.77;;
28003;SDS011;15330;51.234;6.754;2022-09-13T07:06:15;13.77;;;8.55;;
28003;SDS011;15330;51.234;6.754;2022-09-13T07:08:43;13.07;;;8.93;;
28003;SDS011;15330;51.234;6.754;2022-09-13T07:11:10;15.02;;;7.85;;
28003;SDS011;15330;51.234;6.754;2022-09-13T07:13:37;13.05;;;8.13;;
28003;SDS011;15330;51.234;6.754;2022-09-13T07:16:03;10.60;;;8.15;;
28003;SDS011;15330;51.234;6.754;2022-09-13T07:18:30;12.75;;;8.07;;
28003;SDS011;15330;51.234;6.754;2022-09-13T07:21:03;14.52;;;8.23;;
28003;SDS011;15330;51.234;6.754;2022-09-13T07:23:31;13.63;;;8.40;;
28003;SDS011;15330;51.234;6.754;2022-09-13T07:25:59;13.77;;;8.57;;
28003;SDS011;15330;51.234;6.754;2022-09-13T07:31:03;13.07;;;8.32;;
28003;SDS011;15330;51.234;6.754;2022-09-13T07:33:34;12.90;;;8.00;;
28003;SDS011;15330;51.234;6.754;2022-09-13T07:36:00;12.00;;;8.02;;
28003;SDS011;15330;51.234;6.754;2022-09-13T07:38:30;12.98;;;8.93;;
28003;SDS011;15330;51.234;6.754;2022-09-13T07:40:59;15.40;;;8.10;;
28003;SDS011;15330;51.234;6.754;2022-09-13T07:43:25;10.75;;;7.68;;
28003;SDS011;15330;51.234;6.754;2022-09-13T07:45:57;13.88;;;7.63;;
28003;SDS011;15330;51.234;6.754;2022-09-13T07:48:25;13.48;;;8.30;;
28003;SDS011;15330;51.234;6.754;2022-09-13T07:50:58;10.57;;;7.53;;
28003;SDS011;15330;51.234;6.754;2022-09-13T07:53:29;11.65;;;7.88;;
28003;SDS011;15330;51.234;6.754;2022-09-13T07:58:40;19.92;;;9.45;;
28003;SDS011;15330;51.234;6.754;2022-09-13T08:01:15;14.73;;;8.25;;
28003;SDS011;15330;51.234;6.754;2022-09-13T08:03:49;15.27;;;8.98;;
28003;SDS011;15330;51.234;6.754;2022-09-13T08:06:16;9.98;;;7.90;;
28003;SDS011;15330;51.234;6.754;2022-09-13T08:08:42;11.93;;;8.82;;
28003;SDS011;15330;51.234;6.754;2022-09-13T08:11:09;15.13;;;8.68;;
28003;SDS011;15330;51.234;6.754;2022-09-13T08:13:39;11.30;;;7.72;;
28003;SDS011;15330;51.234;6.754;2022-09-13T08:16:05;12.15;;;7.25;;
28003;SDS011;15330;51.234;6.754;2022-09-13T08:18:31;12.20;;;7.95;;
28003;SDS011;15330;51.234;6.754;2022-09-13T08:20:57;11.98;;;7.78;;
28003;SDS011;15330;51.234;6.754;2022-09-13T08:23:24;14.75;;;7.22;;
28003;SDS011;15330;51.234;6.754;2022-09-13T08:25:50;10.20;;;6.20;;
28003;SDS011;15330;51.234;6.754;2022-09-13T08:28:17;9.05;;;5.97;;
28003;SDS011;15330;51.234;6.754;2022-09-13T08:30:45;7.95;;;5.97;;
28003;SDS011;15330;51.234;6.754;2022-09-13T08:33:11;8.65;;;5.70;;
28003;SDS011;15330;51.234;6.754;2022-09-13T08:35:37;16.90;;;6.50;;
28003;SDS011;15330;51.234;6.754;2022-09-13T08:38:06;10.93;;;5.93;;
28003;SDS011;15330;51.234;6.754;2022-09-13T08:40:42;9.75;;;5.63;;
28003;SDS011;15330;51.234;6.754;2022-09-13T08:48:44;9.48;;;5.30;;
28003;SDS011;15330;51.234;6.754;2022-09-13T08:53:57;19.25;;;10.57;;
28003;SDS011;15330;51.234;6.754;2022-09-13T08:56:34;19.00;;;14.77;;
28003;SDS011;15330;51.234;6.754;2022-09-13T09:02:22;14.00;;;6.30;;
28003;SDS011;15330;51.234;6.754;2022-09-13T09:05:08;19.13;;;12.68;;
28003;SDS011;15330;51.234;6.754;2022-09-13T09:07:39;17.73;;;8.02;;
28003;SDS011;15330;51.234;6.754;2022-09-13T09:10:43;12.60;;;6.83;;
28003;SDS011;15330;51.234;6.754;2022-09-13T09:15:50;9.60;;;6.00;;
28003;SDS011;15330;51.234;6.754;2022-09-13T09:20:57;15.80;;;7.65;;
28003;SDS011;15330;51.234;6.754;2022-09-13T09:23:29;12.10;;;7.28;;
28003;SDS011;15330;51.234;6.754;2022-09-13T09:36:40;14.05;;;6.10;;
28003;SDS011;15330;51.234;6.754;2022-09-13T09:39:12;14.07;;;6.70;;
28003;SDS011;15330;51.234;6.754;2022-09-13T09:41:40;10.00;;;5.43;;
28003;SDS011;15330;51.234;6.754;2022-09-13T09:46:34;13.07;;;10.13;;
28003;SDS011;15330;51.234;6.754;2022-09-13T09:49:13;14.15;;;7.78;;
28003;SDS011;15330;51.234;6.754;2022-09-13T09:52:00;11.43;;;5.00;;
28003;SDS011;15330;51.234;6.754;2022-09-13T09:54:31;8.77;;;6.40;;
28003;SDS011;15330;51.234;6.754;2022-09-13T09:56:59;8.18;;;4.38;;
28003;SDS011;15330;51.234;6.754;2022-09-13T09:59:26;19.25;;;10.07;;
28003;SDS011;15330;51.234;6.754;2022-09-13T10:01:56;8.75;;;6.18;;
28003;SDS011;15330;51.234;6.754;2022-09-13T10:04:23;15.25;;;6.95;;
28003;SDS011;15330;51.234;6.754;2022-09-13T10:06:49;9.57;;;5.15;;
28003;SDS011;15330;51.234;6.754;2022-09-13T10:09:31;10.30;;;6.40;;
28003;SDS011;15330;51.234;6.754;2022-09-13T10:11:57;12.25;;;5.50;;
28003;SDS011;15330;51.234;6.754;2022-09-13T10:17:01;16.45;;;6.47;;
28003;SDS011;15330;51.234;6.754;2022-09-13T10:19:37;11.63;;;5.25;;
28003;SDS011;15330;51.234;6.754;2022-09-13T10:22:04;10.43;;;4.97;;
28003;SDS011;15330;51.234;6.754;2022-09-13T10:24:34;6.82;;;5.40;;
28003;SDS011;15330;51.234;6.754;2022-09-13T10:26:59;9.18;;;5.53;;
28003;SDS011;15330;51.234;6.754;2022-09-13T10:29:28;8.52;;;5.85;;
28003;SDS011;15330;51.234;6.754;2022-09-13T10:31:54;8.15;;;4.95;;
28003;SDS011;15330;51.234;6.754;2022-09-13T10:34:26;8.98;;;3.97;;
28003;SDS011;15330;51.234;6.754;2022-09-13T10:36:56;5.72;;;3.88;;
28003;SDS011;15330;51.234;6.754;2022-09-13T10:39:23;10.95;;;4.18;;
28003;SDS011;15330;51.234;6.754;2022-09-13T10:42:00;9.13;;;3.80;;
28003;SDS011;15330;51.234;6.754;2022-09-13T10:44:30;7.10;;;4.22;;
28003;SDS011;15330;51.234;6.754;2022-09-13T10:46:57;11.05;;;4.45;;
28003;SDS011;15330;51.234;6.754;2022-09-13T10:49:37;9.55;;;4.10;;
28003;SDS011;15330;51.234;6.754;2022-09-13T10:54:53;7.20;;;4.32;;
28003;SDS011;15330;51.234;6.754;2022-09-13T10:57:53;12.07;;;5.38;;
28003;SDS011;15330;51.234;6.754;2022-09-13T11:00:12;6.55;;;5.03;;
28003;SDS011;15330;51.234;6.754;2022-09-13T11:08:19;7.03;;;4.95;;
28003;SDS011;15330;51.234;6.754;2022-09-13T11:13:38;7.63;;;4.72;;
28003;SDS011;15330;51.234;6.754;2022-09-13T11:30:13;11.35;;;3.83;;
28003;SDS011;15330;51.234;6.754;2022-09-13T11:44:13;7.95;;;3.83;;
28003;SDS011;15330;51.234;6.754;2022-09-13T11:55:27;8.55;;;4.93;;
28003;SDS011;15330;51.234;6.754;2022-09-13T11:57:58;8.20;;;3.75;;
28003;SDS011;15330;51.234;6.754;2022-09-13T12:00:29;7.40;;;3.50;;
28003;SDS011;15330;51.234;6.754;2022-09-13T12:03:22;6.63;;;3.50;;
28003;SDS011;15330;51.234;6.754;2022-09-13T12:05:59;7.30;;;4.20;;
28003;SDS011;15330;51.234;6.754;2022-09-13T12:08:31;7.10;;;4.20;;
28003;SDS011;15330;51.234;6.754;2022-09-13T12:16:27;5.95;;;3.70;;
28003;SDS011;15330;51.234;6.754;2022-09-13T12:19:02;7.55;;;4.50;;
28003;SDS011;15330;51.234;6.754;2022-09-13T12:21:34;5.13;;;4.43;;
28003;SDS011;15330;51.234;6.754;2022-09-13T12:29:50;6.15;;;3.28;;
28003;SDS011;15330;51.234;6.754;2022-09-13T12:32:19;5.82;;;3.65;;
28003;SDS011;15330;51.234;6.754;2022-09-13T12:34:49;7.32;;;3.60;;
28003;SDS011;15330;51.234;6.754;2022-09-13T12:37:40;6.35;;;4.10;;
28003;SDS011;15330;51.234;6.754;2022-09-13T12:50:45;7.60;;;3.20;;
28003;SDS011;15330;51.234;6.754;2022-09-13T13:01:47;3.80;;;3.00;;
28003;SDS011;15330;51.234;6.754;2022-09-13T13:04:18;6.32;;;3.25;;
28003;SDS011;15330;51.234;6.754;2022-09-13T13:06:54;7.80;;;3.20;;
28003;SDS011;15330;51.234;6.754;2022-09-13T13:09:26;9.88;;;3.38;;
28003;SDS011;15330;51.234;6.754;2022-09-13T13:11:52;3.45;;;3.05;;
28003;SDS011;15330;51.234;6.754;2022-09-13T13:14:30;6.32;;;2.80;;
28003;SDS011;15330;51.234;6.754;2022-09-13T13:23:18;4.80;;;3.13;;
28003;SDS011;15330;51.234;6.754;2022-09-13T13:31:07;8.20;;;3.40;;
28003;SDS011;15330;51.234;6.754;2022-09-13T13:36:42;7.13;;;3.40;;
28003;SDS011;15330;51.234;6.754;2022-09-13T13:46:46;4.07;;;2.80;;
28003;SDS011;15330;51.234;6.754;2022-09-13T13:57:04;9.90;;;3.17;;
28003;SDS011;15330;51.234;6.754;2022-09-13T14:00:22;8.50;;;3.85;;
28003;SDS011;15330;51.234;6.754;2022-09-13T14:08:15;7.68;;;3.63;;
28003;SDS011;15330;51.234;6.754;2022-09-13T14:16:34;4.47;;;3.00;;
28003;SDS011;15330;51.234;6.754;2022-09-13T14:21:39;7.75;;;3.90;;
28003;SDS011;15330;51.234;6.754;2022-09-13T14:24:12;6.20;;;3.20;;
28003;SDS011;15330;51.234;6.754;2022-09-13T14:26:48;7.13;;;2.97;;
28003;SDS011;15330;51.234;6.754;2022-09-13T14:29:18;5.97;;;3.05;;
28003;SDS011;15330;51.234;6.754;2022-09-13T14:31:46;10.85;;;4.63;;
28003;SDS011;15330;51.234;6.754;2022-09-13T14:34:23;6.47;;;3.55;;
28003;SDS011;15330;51.234;6.754;2022-09-13T14:36:53;8.32;;;4.82;;
28003;SDS011;15330;51.234;6.754;2022-09-13T14:39:22;4.78;;;3.50;;
28003;SDS011;15330;51.234;6.754;2022-09-13T14:41:48;7.45;;;3.47;;
28003;SDS011;15330;51.234;6.754;2022-09-13T14:44:36;9.18;;;3.75;;
28003;SDS011;15330;51.234;6.754;2022-09-13T14:47:06;4.50;;;3.33;;
28003;SDS011;15330;51.234;6.754;2022-09-13T14:49:42;6.47;;;3.30;;
28003;SDS011;15330;51.234;6.754;2022-09-13T14:52:18;7.32;;;4.40;;
28003;SDS011;15330;51.234;6.754;2022-09-13T14:54:50;4.13;;;2.90;;
28003;SDS011;15330;51.234;6.754;2022-09-13T14:57:23;6.47;;;3.40;;
28003;SDS011;15330;51.234;6.754;2022-09-13T15:00:19;9.73;;;3.38;;
28003;SDS011;15330;51.234;6.754;2022-09-13T15:02:56;6.32;;;3.55;;
28003;SDS011;15330;51.234;6.754;2022-09-13T15:05:25;7.15;;;3.20;;
28003;SDS011;15330;51.234;6.754;2022-09-13T15:07:52;5.65;;;3.22;;
28003;SDS011;15330;51.234;6.754;2022-09-13T15:10:19;4.85;;;3.10;;
28003;SDS011;15330;51.234;6.754;2022-09-13T15:18:00;9.32;;;5.50;;
28003;SDS011;15330;51.234;6.754;2022-09-13T15:20:51;8.25;;;3.78;;
28003;SDS011;15330;51.234;6.754;2022-09-13T15:23:19;10.65;;;3.85;;
28003;SDS011;15330;51.234;6.754;2022-09-13T15:25:49;9.95;;;8.15;;
28003;SDS011;15330;51.234;6.754;2022-09-13T15:28:22;6.63;;;3.38;;
28003;SDS011;15330;51.234;6.754;2022-09-13T15:30:52;6.60;;;4.03;;
28003;SDS011;15330;51.234;6.754;2022-09-13T15:33:29;10.15;;;5.93;;
28003;SDS011;15330;51.234;6.754;2022-09-13T15:39:02;10.13;;;6.50;;
28003;SDS011;15330;51.234;6.754;2022-09-13T15:41:49;14.00;;;9.50;;
28003;SDS011;15330;51.234;6.754;2022-09-13T15:44:27;6.25;;;4.53;;
28003;SDS011;15330;51.234;6.754;2022-09-13T15:47:00;7.47;;;4.03;;
28003;SDS011;15330;51.234;6.754;2022-09-13T15:49:29;7.35;;;3.60;;
28003;SDS011;15330;51.234;6.754;2022-09-13T15:51:59;10.25;;;3.95;;
28003;SDS011;15330;51.234;6.754;2022-09-13T15:54:30;4.88;;;3.47;;
28003;SDS011;15330;51.234;6.754;2022-09-13T15:57:06;8.50;;;4.10;;
28003;SDS011;15330;51.234;6.754;2022-09-13T15:59:33;17.90;;;12.32;;
28003;SDS011;15330;51.234;6.754;2022-09-13T16:01:59;9.90;;;4.90;;
28003;SDS011;15330;51.234;6.754;2022-09-13T16:04:27;19.23;;;12.57;;
28003;SDS011;15330;51.234;6.754;2022-09-13T16:06:52;11.60;;;4.75;;
28003;SDS011;15330;51.234;6.754;2022-09-13T16:09:19;9.43;;;5.22;;
28003;SDS011;15330;51.234;6.754;2022-09-13T16:11:46;9.50;;;5.45;;
28003;SDS011;15330;51.234;6.754;2022-09-13T16:14:12;7.47;;;5.47;;
28003;SDS011;15330;51.234;6.754;2022-09-13T16:16:38;11.32;;;7.85;;
28003;SDS011;15330;51.234;6.754;2022-09-13T16:19:03;11.23;;;7.00;;
28003;SDS011;15330;51.234;6.754;2022-09-13T16:21:29;8.93;;;6.05;;
28003;SDS011;15330;51.234;6.754;2022-09-13T16:23:54;9.75;;;5.78;;
28003;SDS011;15330;51.234;6.754;2022-09-13T16:26:20;8.68;;;5.47;;
28003;SDS011;15330;51.234;6.754;2022-09-13T16:28:46;11.10;;;6.15;;
28003;SDS011;15330;51.234;6.754;2022-09-13T16:31:11;12.15;;;7.28;;
28003;SDS011;15330;51.234;6.754;2022-09-13T16:33:39;8.85;;;5.28;;
28003;SDS011;15330;51.234;6.754;2022-09-13T16:36:04;13.88;;;7.72;;
28003;SDS011;15330;51.234;6.754;2022-09-13T16:38:30;8.07;;;5.70;;
28003;SDS011;15330;51.234;6.754;2022-09-13T16:40:55;8.82;;;6.85;;
28003;SDS011;15330;51.234;6.754;2022-09-13T16:43:20;10.70;;;7.25;;
28003;SDS011;15330;51.234;6.754;2022-09-13T16:45:46;14.95;;;9.00;;
28003;SDS011;15330;51.234;6.754;2022-09-13T16:48:14;11.75;;;8.85;;
28003;SDS011;15330;51.234;6.754;2022-09-13T16:50:40;14.23;;;7.60;;
28003;SDS011;15330;51.234;6.754;2022-09-13T16:53:06;13.10;;;8.98;;
28003;SDS011;15330;51.234;6.754;2022-09-13T16:55:32;12.80;;;7.10;;
28003;SDS011;15330;51.234;6.754;2022-09-13T16:57:58;13.88;;;8.65;;
28003;SDS011;15330;51.234;6.754;2022-09-13T17:00:23;18.60;;;10.15;;
28003;SDS011;15330;51.234;6.754;2022-09-13T17:02:52;12.90;;;8.82;;
28003;SDS011;15330;51.234;6.754;2022-09-13T17:05:18;14.23;;;9.52;;
28003;SDS011;15330;51.234;6.754;2022-09-13T17:07:44;17.80;;;8.55;;
28003;SDS011;15330;51.234;6.754;2022-09-13T17:10:09;15.15;;;9.23;;
28003;SDS011;15330;51.234;6.754;2022-09-13T17:12:36;15.52;;;9.13;;
28003;SDS011;15330;51.234;6.754;2022-09-13T17:15:02;20.02;;;10.48;;
28003;SDS011;15330;51.234;6.754;2022-09-13T17:17:28;15.55;;;9.85;;
28003;SDS011;15330;51.234;6.754;2022-09-13T17:19:59;16.00;;;9.50;;
28003;SDS011;15330;51.234;6.754;2022-09-13T17:22:26;15.45;;;9.45;;
28003;SDS011;15330;51.234;6.754;2022-09-13T17:24:51;13.05;;;8.85;;
28003;SDS011;15330;51.234;6.754;2022-09-13T17:27:16;11.50;;;6.75;;
28003;SDS011;15330;51.234;6.754;2022-09-13T17:29:42;12.60;;;7.15;;
28003;SDS011;15330;51.234;6.754;2022-09-13T17:32:07;8.93;;;7.18;;
28003;SDS011;15330;51.234;6.754;2022-09-13T17:34:33;14.25;;;9.45;;
28003;SDS011;15330;51.234;6.754;2022-09-13T17:36:59;14.05;;;7.30;;
28003;SDS011;15330;51.234;6.754;2022-09-13T17:39:25;9.50;;;7.32;;
28003;SDS011;15330;51.234;6.754;2022-09-13T17:41:50;22.07;;;16.03;;
28003;SDS011;15330;51.234;6.754;2022-09-13T17:44:16;15.68;;;11.25;;
28003;SDS011;15330;51.234;6.754;2022-09-13T17:46:41;14.23;;;8.93;;
28003;SDS011;15330;51.234;6.754;2022-09-13T17:49:07;14.50;;;11.35;;
28003;SDS011;15330;51.234;6.754;2022-09-13T17:51:32;26.63;;;18.52;;
28003;SDS011;15330;51.234;6.754;2022-09-13T17:53:58;15.40;;;10.60;;
28003;SDS011;15330;51.234;6.754;2022-09-13T17:58:56;23.65;;;17.83;;
28003;SDS011;15330;51.234;6.754;2022-09-13T18:01:27;19.23;;;13.05;;
28003;SDS011;15330;51.234;6.754;2022-09-13T18:03:53;16.00;;;10.93;;
28003;SDS011;15330;51.234;6.754;2022-09-13T18:06:19;22.05;;;9.90;;
28003;SDS011;15330;51.234;6.754;2022-09-13T18:08:44;17.65;;;12.63;;
28003;SDS011;15330;51.234;6.754;2022-09-13T18:11:11;16.15;;;11.00;;
28003;SDS011;15330;51.234;6.754;2022-09-13T18:13:39;19.80;;;10.77;;
28003;SDS011;15330;51.234;6.754;2022-09-13T18:16:06;17.63;;;13.05;;
28003;SDS011;15330;51.234;6.754;2022-09-13T18:18:34;18.00;;;12.50;;
28003;SDS011;15330;51.234;6.754;2022-09-13T18:21:01;18.35;;;11.60;;
28003;SDS011;15330;51.234;6.754;2022-09-13T18:23:27;16.27;;;10.68;;
28003;SDS011;15330;51.234;6.754;2022-09-13T18:25:59;16.63;;;13.93;;
28003;SDS011;15330;51.234;6.754;2022-09-13T18:28:29;18.02;;;13.20;;
28003;SDS011;15330;51.234;6.754;2022-09-13T18:30:55;18.73;;;13.00;;
28003;SDS011;15330;51.234;6.754;2022-09-13T18:33:22;19.90;;;15.35;;
28003;SDS011;15330;51.234;6.754;2022-09-13T18:35:55;20.55;;;15.00;;
28003;SDS011;15330;51.234;6.754;2022-09-13T18:38:21;19.65;;;13.52;;
28003;SDS011;15330;51.234;6.754;2022-09-13T18:40:46;19.35;;;14.20;;
28003;SDS011;15330;51.234;6.754;2022-09-13T18:43:11;18.85;;;14.80;;